Fort Patrick Henry Observed Data For Previous 48 Hours

Caption
Day and Hour Reservoir Elevation (behind dam)* Tailwater Elevation (below dam)* Average Hourly Discharge*
3/18/2019 2 AM EDT 1,260.22 1,197.32 9,050
3/18/2019 3 AM EDT 1,260.20 1,197.32 9,026
3/18/2019 4 AM EDT 1,260.17 1,197.35 9,042
3/18/2019 5 AM EDT 1,260.15 1,197.31 9,052
3/18/2019 6 AM EDT 1,260.13 1,197.31 9,040
3/18/2019 7 AM EDT 1,260.11 1,197.28 9,044
3/18/2019 8 AM EDT 1,260.09 1,197.32 9,059
3/18/2019 9 AM EDT 1,260.07 1,197.32 9,041
3/18/2019 10 AM EDT 1,260.05 1,197.33 9,048
3/18/2019 11 AM EDT 1,260.03 1,197.31 9,064
3/18/2019 12 PM EDT 1,260.01 1,197.32 9,053
3/18/2019 1 PM EDT 1,260.10 1,195.21 6,681
3/18/2019 2 PM EDT 1,260.51 1,194.24 21
3/18/2019 3 PM EDT 1,260.75 1,196.37 637
3/18/2019 4 PM EDT 1,260.80 1,196.92 6,746
3/18/2019 5 PM EDT 1,260.75 1,197.20 8,848
3/18/2019 6 PM EDT 1,260.67 1,197.22 8,870
3/18/2019 7 PM EDT 1,260.58 1,197.24 8,884
3/18/2019 8 PM EDT 1,260.49 1,197.20 8,901
3/18/2019 9 PM EDT 1,260.41 1,197.24 8,895
3/18/2019 10 PM EDT 1,260.31 1,197.20 8,884
3/18/2019 11 PM EDT 1,260.22 1,197.25 8,876
3/19/2019 12 AM EDT 1,260.13 1,197.22 8,838
3/19/2019 1 AM EDT 1,260.04 1,197.27 8,852
3/19/2019 2 AM EDT 1,259.95 1,197.24 8,833
3/19/2019 3 AM EDT 1,259.86 1,197.23 8,825
3/19/2019 4 AM EDT 1,259.77 1,197.22 8,848
3/19/2019 5 AM EDT 1,259.69 1,197.18 8,831
3/19/2019 6 AM EDT 1,259.59 1,197.22 8,825
3/19/2019 7 AM EDT 1,259.50 1,197.21 8,829
3/19/2019 8 AM EDT 1,259.42 1,197.23 8,832
3/19/2019 9 AM EDT 1,259.33 1,197.16 8,811
3/19/2019 10 AM EDT 1,259.23 1,197.19 8,810
3/19/2019 11 AM EDT 1,259.15 1,197.20 8,815
3/19/2019 12 PM EDT 1,259.06 1,197.22 8,797
3/19/2019 1 PM EDT 1,259.19 1,195.86 6,655
3/19/2019 2 PM EDT 1,259.33 1,195.88 6,605
3/19/2019 3 PM EDT 1,259.47 1,195.80 6,575
3/19/2019 4 PM EDT 1,259.61 1,195.86 6,584
3/19/2019 5 PM EDT 1,259.74 1,195.85 6,590
3/19/2019 6 PM EDT 1,259.81 1,196.92 6,952
3/19/2019 7 PM EDT 1,259.74 1,197.15 8,756
3/19/2019 8 PM EDT 1,259.66 1,197.17 8,773
3/19/2019 9 PM EDT 1,259.58 1,197.18 8,799
3/19/2019 10 PM EDT 1,259.49 1,197.19 8,824
3/19/2019 11 PM EDT 1,259.41 1,197.19 8,824
3/20/2019 12 AM EDT 1,259.31 1,197.21 8,817
3/20/2019 1 AM EDT 1,259.22 1,197.17 8,823
3/20/2019 2 AM EDT 1,259.22 1,195.92 6,683
3/20/2019 3 AM EDT 1,259.30 1,195.90 6,631
3/20/2019 4 AM EDT 1,259.40 1,195.91 6,621
3/20/2019 5 AM EDT 1,259.48 1,195.80 6,509
3/20/2019 6 AM EDT 1,259.48 1,195.76 6,471
3/20/2019 7 AM EDT 1,259.62 1,195.73 6,465
3/20/2019 8 AM EDT 1,259.71 1,195.78 6,471

Elevations are in feet above sea level. Discharges are in cubic feet per second and are reported at the end of the hour.